SBGO/GYN METAR and TAF weather

Enter ICAO airport designator
Station Type Date Time Source
SBGO METAR 2019/02/23 01:00 UTC NOAA

SBGO 230100Z 11012KT 9999 -TSRA FEW030 SCT040CB OVC080 22/19 Q1 018


Station Type Date Time Source
SBGO Decoded METAR 2019/02/23 01:00 UTC NOAA

Goiania Aeroporto , Brazil (SBGO) 16-38S 049-13W
Feb 22, 2019 - 08:00 PM EST / 2019.02.23 0100 UTC
Wind: from the ESE (110 degrees) at 14 MPH (12 KT):0
Visibility: greater than 7 mile(s):0
Sky conditions: overcast
Weather: light rain with thunder; Cumulonimbus clouds observed
Temperature: 71 F (22 C)
Dew Point: 66 F (19 C)
Relative Humidity: 83%
ob: SBGO 230100Z 11012KT 9999 -TSRA FEW030 SCT040CB OVC080 22/19 Q1 018
cycle: 1

Station Type Date Time Source
SBGO TAF 2019/02/23 00:33 UTC NOAA

TAF SBGO 222200Z 2300/2324 34005KT 8000 TS FEW040 FEW045CB TN21/2308Z TX32/2317Z
BECMG 2302/2304 13005KT 9999 NSW FEW040
FM230900 13005KT 9999 FEW008
BECMG 2313/2315 32007KT SCT030
BECMG 2315/2317 SCT040 FEW045TCU PROB40 2318/2323 TS SCT040 FEW045CB
RMK PEJ


Example: see airport list